Mijn Webcam Meer informatie Mijn Webcam


webcam facing north-east Meer informatie webcam facing north-east


Regen radar Meer informatie rain snow radar


Bezoek onze andere website:

Template documentation
and downloads

And another site


CBI



METAR rapporten vliegvelden

   
EHGG - Groningen/Eelde
Gewijzigd: 19-09-2017 20:55
Gedeeltelijk bewolkt  
Gedeeltelijk bewolkt  
   Wind: WZW 2,1 m/s
Wind: WZW 2,1 m/s
Temperatuur: 9°C
Voelt als: 8°C
Dauwpunt: 9°C
Vochtigheid: 100%
Barometer: 1018 hPa
Bewolking: Gedeeltelijk bewolkt
Zicht: More then 10 km
Bewolking: Gedeeltelijk bewolkt
EHGG 191855Z AUTO 24004KT 9999 NSC 09/09 Q1018 NOSIG
EHMA - Schiermonnikoog
Gewijzigd: 19-09-2017 20:55
Licht bewolkt  
Licht bewolkt  
   Wind: WNW 9,3 m/s
Wind: WNW 9,3 m/s
Temperatuur: 15°C
Dauwpunt: 10°C
Vochtigheid: 72%
Barometer: 1018 hPa
Bewolking: Licht bewolkt
Zicht: More then 10 km
Bewolking: Licht bewolkt 579,1 m
EHMA 191855Z AUTO 30018KT 9999 FEW019 15/10 Q1018
EHMG - Terschelling
Gewijzigd: 19-09-2017 20:55
Licht bewolkt  
Licht bewolkt  
   Wind: WNW 10,3 m/s
Wind: WNW 10,3 m/s
Temperatuur: 14°C
Dauwpunt: 9°C
Vochtigheid: 72%
Barometer: 1018 hPa
Bewolking: Licht bewolkt
Zicht: More then 10 km
Bewolking: Licht bewolkt 670,6 m
EHMG 191855Z AUTO 30020KT 9999 FEW022 14/09 Q1018
EHVL - Vlieland
Gewijzigd: 19-09-2017 20:55
Grotendeels bewolkt  
Grotendeels bewolkt  
   Wind: NW 8,2 m/s
Wind: NW 8,2 m/s
Temperatuur: 14°C
Dauwpunt: 10°C
Vochtigheid: 77%
Barometer: 1019 hPa
Bewolking: Grotendeels bewolkt
Zicht: More then 10 km
Bewolking: Licht bewolkt 548,6 m,
Grotendeels bewolkt 975,4 m,
Grotendeels bewolkt 1219,2 m
EHVL 191855Z AUTO 31016KT 9999 FEW018 BKN032 BKN040 14/10 Q1019 BLU
ETWM - Meppen, Germany
Gewijzigd: 19-09-2017 20:20
  
  
   Wind: ZW 1,5 m/s
Wind: ZW 1,5 m/s
Temperatuur: 13°C
Dauwpunt: 11°C
Vochtigheid: 88%
Barometer: 1019 hPa
Zicht: More then 10 km
ETWM 191820Z AUTO 23003KT 9999 // ////// 13/11 Q1019 ///
 

Script ontwikkeld door  Saratoga-weather.org Aangepast voor de template door  Weerstation Leuven

U vindt ons ook hier:

Het Weer Aktueel

UK Metoffice

European Weather Network

WeatherCloud

Weather Underground

Benelux Weer Netwerk

AWEKAS

WeatherlinkIP

HAMweather, WeatherForYou, PWS Weather

Apparatuur in gebruik:

Weerstation
Davis VP2 Plus

Weerprogramma
Cumulus

Weercomputer
ASUS Eee Box B202

Webleverancier
Antagonist

Davis VP2 Plus

Cumulus

ASUS Eee Box B202

Antagonist